Springdale, AR (72764)

8:24 AM CST on December 21, 2014 (GMT -0600)
Quail ln | Change Station
CLOSE
Current Station
Personal Weather Station
Location: Springdale, AR
Elevation: 1302 ft
Nearby Weather Stations

Elev 1302 ft 36.15 °N, 94.10 °W | Updated 4 seconds ago

Overcast
Overcast
40.2 °F
Feels Like 40 °F
N
0.0
Wind Variable Wind from SE
Gusts 1.3 mph

Today
High -- | Low -- °F
--% Chance of Precip.
Yesterday
High -- | Low -- °F
Precip. -- in
7:23 AM 5:05 PM
Waning Crescent, 0% visible
Pressure 30.12 in
Visibility 3.0 miles
Clouds Overcast 2800 ft
Windchill 40 °F
Dew Point 38 °F
Humidity 92%
Rainfall 0.00 in
Snow Depth Not available.
UV 0 out of 12
Pollen 5.70 out of 12
Air Quality Not available.
Flu Activity Not available.
METAR KASG 211348Z 14006KT 3SM BR OVC028 05/04 A3012

More Conditions Fewer Conditions

Pressure 30.12 in
Visibility 3.0 miles
Clouds Overcast 2800 ft
Windchill 40 °F
Dew Point 38 °F
Humidity 92%
Rainfall 0.00 in
Snow Depth Not available.
UV 0 out of 12
Pollen 5.70 out of 12
Air Quality Not available.
Flu Activity Not available.
METAR KASG 211348Z 14006KT 3SM BR OVC028 05/04 A3012

More Conditions Fewer Conditions

10-Day Weather Forecast

Almanac

Astronomy

Dec. 21, 2014 Rise Set
Actual Time
Civil Twilight
Nautical Twilight
Astronomical Twilight
Moon
Length of Visible Light
Length of Day
Tomorrow will be .
, % of the Moon is Illuminated

Today's Extremes

State Highs State Lows

Community

WunderPhotos

Upload Photos

1,779,392 photos uploaded!

WunderBlogs® & News

Nearby

Air Quality

  Air Quality AQ Index Pollutant
Not available.

Snow Depth

Station Depth Elevation

Earthquake Activity

City Distance Mag. Time & Date
Minimum magnitude displayed is 2.5.

Coastal Water Temperatures

Place Temperature

Nearby Weather Stations